Deligrad — YT23N0 — position and weather

sailwx.info

Track history (hours):
 
Tides and Currents Weather Stations Pressure Air Temp Water Temp Dewpoint Dewpoint Depression Visibility Wind Speed Wind Dir Waves Ship Positions

Deligrad

Last reported at 2017-Oct-14 02:39 UTC. Time now 2017-Oct-18 06:12 UTC.
Position N 44°31' E 022°12'.

Length 172 m; draft 2.3 m.

Type: Cargo ship. MMSI: 279202320.

Date/timePositionNaut miles runAvg speedWind from/ knotsBaromVisibWave heightAir tempDewpointWater temp
2017-Oct-14 02:39N 44°31' E 022°12'1 8.0
2017-Oct-14 02:31N 44°30' E 022°12'3 6.6
2017-Oct-14 02:01N 44°29' E 022°07'4 7.4
2017-Oct-14 01:31N 44°32' E 022°04'4 7.3
2017-Oct-14 01:00N 44°35' E 022°02'14 7.1
2017-Oct-13 22:59N 44°40' E 021°42'3 7.2
2017-Oct-13 22:30N 44°42' E 021°39'4 7.3
2017-Oct-13 22:00N 44°45' E 021°36'4 7.7
2017-Oct-13 21:26N 44°46' E 021°30'3 8.0
2017-Oct-13 21:01N 44°46' E 021°25'4 7.2
2017-Oct-13 20:25N 44°49' E 021°21'3 7.9
2017-Oct-13 20:00N 44°48' E 021°16'2 4.7
2017-Oct-13 19:30N 44°47' E 021°13'4 8.0
2017-Oct-13 19:00N 44°44' E 021°09'4 7.9
2017-Oct-13 18:31N 44°43' E 021°04'4 7.8
2017-Oct-13 18:00N 44°43' E 020°59'1 2.1
2017-Oct-13 17:30N 44°42' E 020°58'0 0.1
2017-Oct-13 17:01N 44°42' E 020°58'2 4.7
2017-Oct-13 16:30N 44°40' E 020°55'0 0.1
2017-Oct-13 16:01N 44°40' E 020°55'0 0.0
2017-Oct-13 14:07N 44°40' E 020°55'0 0.0
2017-Oct-13 13:44N 44°40' E 020°55'0 0.0
2017-Oct-13 13:30N 44°40' E 020°55'0 0.0
2017-Oct-13 13:01N 44°40' E 020°55'0 0.0
2017-Oct-13 12:31N 44°40' E 020°55'0 0.0
2017-Oct-13 12:01N 44°40' E 020°55'0 0.0
2017-Oct-13 11:30N 44°40' E 020°55'0 0.0
2017-Oct-13 11:00N 44°40' E 020°55'0 0.0
2017-Oct-13 10:31N 44°40' E 020°55'0 0.0
2017-Oct-13 09:56N 44°40' E 020°55'0 0.0
2017-Oct-13 09:31N 44°40' E 020°55'0 0.0
2017-Oct-13 09:01N 44°40' E 020°55'0 0.0
2017-Oct-13 08:30N 44°40' E 020°55'0 0.0
2017-Oct-13 08:00N 44°40' E 020°55'0 0.0
2017-Oct-13 07:28N 44°40' E 020°55'2 5.2
2017-Oct-13 07:01N 44°42' E 020°57'0 0.0
2017-Oct-13 06:31N 44°42' E 020°57'0 0.0
2017-Oct-13 06:00N 44°42' E 020°57'0 0.0
2017-Oct-13 05:31N 44°42' E 020°57'0 0.0
2017-Oct-13 05:00N 44°42' E 020°57'0 0.0
2017-Oct-13 04:30N 44°42' E 020°57'0 0.0
2017-Oct-13 04:01N 44°42' E 020°57'0 0.0
2017-Oct-13 03:31N 44°42' E 020°57'0 0.0
2017-Oct-13 03:00N 44°42' E 020°57'0 0.5
2017-Oct-13 02:31N 44°42' E 020°58'0 0.0
2017-Oct-13 02:00N 44°42' E 020°58'0 0.0
2017-Oct-13 01:31N 44°42' E 020°58'0 0.0
2017-Oct-13 01:00N 44°42' E 020°58'0 0.0
2017-Oct-13 00:30N 44°42' E 020°58'0 0.0
2017-Oct-13 00:01N 44°42' E 020°58'0 0.0
2017-Oct-12 23:30N 44°42' E 020°58'0 0.0
2017-Oct-12 23:00N 44°42' E 020°58'0 0.0
2017-Oct-12 22:31N 44°42' E 020°58'0 0.0
2017-Oct-12 22:01N 44°42' E 020°58'0 0.0
2017-Oct-12 21:31N 44°42' E 020°58'3 1.6
2017-Oct-12 19:55N 44°40' E 020°55'0 0.0
2017-Oct-12 14:26N 44°40' E 020°55'0 0.0
2017-Oct-12 14:01N 44°40' E 020°55'0 0.0
2017-Oct-12 13:31N 44°40' E 020°55'0 0.0
2017-Oct-12 13:00N 44°40' E 020°55'0 0.0
2017-Oct-12 08:29N 44°40' E 020°55'2 2.4
2017-Oct-12 07:46N 44°41' E 020°57'1 3.8
2017-Oct-12 07:29N 44°42' E 020°58'0 0.3
2017-Oct-12 07:00N 44°42' E 020°58'1 2.4
2017-Oct-12 06:27N 44°43' E 020°59'2 5.1
2017-Oct-12 06:00N 44°43' E 021°03'3 5.3
2017-Oct-12 05:30N 44°44' E 021°06'3 5.2
2017-Oct-12 04:56N 44°45' E 021°10'2 5.0
2017-Oct-12 04:27N 44°47' E 021°13'2 2.6
2017-Oct-12 03:46N 44°47' E 021°15'8 4.1
2017-Oct-12 01:53N 44°46' E 021°26'2 4.0
2017-Oct-12 01:26N 44°47' E 021°28'3 5.3
2017-Oct-12 00:50N 44°46' E 021°32'2 5.1
2017-Oct-12 00:30N 44°46' E 021°35'3 5.1
2017-Oct-12 00:00N 44°44' E 021°37'3 5.3
2017-Oct-11 23:30N 44°41' E 021°37'2 4.3
2017-Oct-11 22:58N 44°40' E 021°39'14 4.8
2017-Oct-11 19:57N 44°38' E 021°60'2 4.6
2017-Oct-11 19:30N 44°36' E 022°01'2 4.7
2017-Oct-11 19:00N 44°34' E 022°02'3 5.1
2017-Oct-11 18:31N 44°32' E 022°04'3 5.2
2017-Oct-11 18:01N 44°30' E 022°06'3 5.5
2017-Oct-11 17:31N 44°28' E 022°09'2 4.9
2017-Oct-11 17:01N 44°30' E 022°12'  
2017-Oct-09 12:21N 43°54' E 022°51'2 4.4
2017-Oct-09 12:00N 43°52' E 022°50'2 4.4
2017-Oct-09 11:30N 43°50' E 022°52'3 4.7
2017-Oct-09 10:58N 43°50' E 022°55'3 4.4
2017-Oct-09 10:23N 43°49' E 022°58'2 4.3
2017-Oct-09 09:58N 43°48' E 023°01'4 3.9
2017-Oct-09 08:52N 43°48' E 023°07'5 4.2
2017-Oct-09 07:48N 43°50' E 023°13'2 4.2
2017-Oct-09 07:14N 43°51' E 023°16'1 4.6
2017-Oct-09 07:00N 43°51' E 023°17'2 4.4
2017-Oct-09 06:30N 43°51' E 023°20'3 4.6
2017-Oct-09 05:54N 43°51' E 023°24'  
2017-Oct-04 14:11N 44°17' E 028°05'1 5.5
2017-Oct-04 14:00N 44°16' E 028°06'3 5.6
2017-Oct-04 13:30N 44°16' E 028°10'3 5.4
2017-Oct-04 13:00N 44°15' E 028°13'3 5.5
2017-Oct-04 12:30N 44°15' E 028°17'3 5.5
2017-Oct-04 12:00N 44°15' E 028°21'3 5.7
2017-Oct-04 11:30N 44°13' E 028°23'9 4.7
2017-Oct-04 09:32N 44°06' E 028°33'0 5.6
2017-Oct-04 09:29N 44°06' E 028°33'3 5.8
2017-Oct-04 09:00N 44°06' E 028°37'0 0.9
2017-Oct-04 08:30N 44°06' E 028°37'0 0.5
2017-Oct-04 08:00N 44°06' E 028°38'0 0.0
2017-Oct-04 07:30N 44°06' E 028°38'2 3.2
2017-Oct-04 07:00N 44°07' E 028°39'0 0.1
2017-Oct-04 06:30N 44°07' E 028°39'1 2.6
2017-Oct-04 06:00N 44°06' E 028°39'0 0.0
2017-Oct-04 05:30N 44°06' E 028°39'0 0.0
2017-Oct-04 05:00N 44°06' E 028°39'1 1.8
2017-Oct-04 04:30N 44°07' E 028°39'0 0.0
2017-Oct-04 04:00N 44°07' E 028°39'0 0.0
2017-Oct-04 03:30N 44°07' E 028°39'0 0.0
2017-Oct-04 03:00N 44°07' E 028°39'  
Track history (hours):
 
Tides and Currents Weather Stations Pressure Air Temp Water Temp Dewpoint Dewpoint Depression Visibility Wind Speed Wind Dir Waves Ship Positions

Deligrad

Last reported at 2017-Oct-14 02:39 UTC. Time now 2017-Oct-18 06:12 UTC.
Position N 44°31' E 022°12'.

Length 172 m; draft 2.3 m.

Type: Cargo ship. MMSI: 279202320.

Date/timePositionNaut miles runAvg speedWind from/ knotsBaromVisibWave heightAir tempDewpointWater temp
2017-Oct-14 02:39N 44°31' E 022°12'1 8.0
2017-Oct-14 02:31N 44°30' E 022°12'3 6.6
2017-Oct-14 02:01N 44°29' E 022°07'4 7.4
2017-Oct-14 01:31N 44°32' E 022°04'4 7.3
2017-Oct-14 01:00N 44°35' E 022°02'14 7.1
2017-Oct-13 22:59N 44°40' E 021°42'3 7.2
2017-Oct-13 22:30N 44°42' E 021°39'4 7.3
2017-Oct-13 22:00N 44°45' E 021°36'4 7.7
2017-Oct-13 21:26N 44°46' E 021°30'3 8.0
2017-Oct-13 21:01N 44°46' E 021°25'4 7.2
2017-Oct-13 20:25N 44°49' E 021°21'3 7.9
2017-Oct-13 20:00N 44°48' E 021°16'2 4.7
2017-Oct-13 19:30N 44°47' E 021°13'4 8.0
2017-Oct-13 19:00N 44°44' E 021°09'4 7.9
2017-Oct-13 18:31N 44°43' E 021°04'4 7.8
2017-Oct-13 18:00N 44°43' E 020°59'1 2.1
2017-Oct-13 17:30N 44°42' E 020°58'0 0.1
2017-Oct-13 17:01N 44°42' E 020°58'2 4.7
2017-Oct-13 16:30N 44°40' E 020°55'0 0.1
2017-Oct-13 16:01N 44°40' E 020°55'0 0.0
2017-Oct-13 14:07N 44°40' E 020°55'0 0.0
2017-Oct-13 13:44N 44°40' E 020°55'0 0.0
2017-Oct-13 13:30N 44°40' E 020°55'0 0.0
2017-Oct-13 13:01N 44°40' E 020°55'0 0.0
2017-Oct-13 12:31N 44°40' E 020°55'0 0.0
2017-Oct-13 12:01N 44°40' E 020°55'0 0.0
2017-Oct-13 11:30N 44°40' E 020°55'0 0.0
2017-Oct-13 11:00N 44°40' E 020°55'0 0.0
2017-Oct-13 10:31N 44°40' E 020°55'0 0.0
2017-Oct-13 09:56N 44°40' E 020°55'0 0.0
2017-Oct-13 09:31N 44°40' E 020°55'0 0.0
2017-Oct-13 09:01N 44°40' E 020°55'0 0.0
2017-Oct-13 08:30N 44°40' E 020°55'0 0.0
2017-Oct-13 08:00N 44°40' E 020°55'0 0.0
2017-Oct-13 07:28N 44°40' E 020°55'2 5.2
2017-Oct-13 07:01N 44°42' E 020°57'0 0.0
2017-Oct-13 06:31N 44°42' E 020°57'0 0.0
2017-Oct-13 06:00N 44°42' E 020°57'0 0.0
2017-Oct-13 05:31N 44°42' E 020°57'0 0.0
2017-Oct-13 05:00N 44°42' E 020°57'0 0.0
2017-Oct-13 04:30N 44°42' E 020°57'0 0.0
2017-Oct-13 04:01N 44°42' E 020°57'0 0.0
2017-Oct-13 03:31N 44°42' E 020°57'0 0.0
2017-Oct-13 03:00N 44°42' E 020°57'0 0.5
2017-Oct-13 02:31N 44°42' E 020°58'0 0.0
2017-Oct-13 02:00N 44°42' E 020°58'0 0.0
2017-Oct-13 01:31N 44°42' E 020°58'0 0.0
2017-Oct-13 01:00N 44°42' E 020°58'0 0.0
2017-Oct-13 00:30N 44°42' E 020°58'0 0.0
2017-Oct-13 00:01N 44°42' E 020°58'0 0.0
2017-Oct-12 23:30N 44°42' E 020°58'0 0.0
2017-Oct-12 23:00N 44°42' E 020°58'0 0.0
2017-Oct-12 22:31N 44°42' E 020°58'0 0.0
2017-Oct-12 22:01N 44°42' E 020°58'0 0.0
2017-Oct-12 21:31N 44°42' E 020°58'3 1.6
2017-Oct-12 19:55N 44°40' E 020°55'0 0.0
2017-Oct-12 14:26N 44°40' E 020°55'0 0.0
2017-Oct-12 14:01N 44°40' E 020°55'0 0.0
2017-Oct-12 13:31N 44°40' E 020°55'0 0.0
2017-Oct-12 13:00N 44°40' E 020°55'0 0.0
2017-Oct-12 08:29N 44°40' E 020°55'2 2.4
2017-Oct-12 07:46N 44°41' E 020°57'1 3.8
2017-Oct-12 07:29N 44°42' E 020°58'0 0.3
2017-Oct-12 07:00N 44°42' E 020°58'1 2.4
2017-Oct-12 06:27N 44°43' E 020°59'2 5.1
2017-Oct-12 06:00N 44°43' E 021°03'3 5.3
2017-Oct-12 05:30N 44°44' E 021°06'3 5.2
2017-Oct-12 04:56N 44°45' E 021°10'2 5.0
2017-Oct-12 04:27N 44°47' E 021°13'2 2.6
2017-Oct-12 03:46N 44°47' E 021°15'8 4.1
2017-Oct-12 01:53N 44°46' E 021°26'2 4.0
2017-Oct-12 01:26N 44°47' E 021°28'3 5.3
2017-Oct-12 00:50N 44°46' E 021°32'2 5.1
2017-Oct-12 00:30N 44°46' E 021°35'3 5.1
2017-Oct-12 00:00N 44°44' E 021°37'3 5.3
2017-Oct-11 23:30N 44°41' E 021°37'2 4.3
2017-Oct-11 22:58N 44°40' E 021°39'14 4.8
2017-Oct-11 19:57N 44°38' E 021°60'2 4.6
2017-Oct-11 19:30N 44°36' E 022°01'2 4.7
2017-Oct-11 19:00N 44°34' E 022°02'3 5.1
2017-Oct-11 18:31N 44°32' E 022°04'3 5.2
2017-Oct-11 18:01N 44°30' E 022°06'3 5.5
2017-Oct-11 17:31N 44°28' E 022°09'2 4.9
2017-Oct-11 17:01N 44°30' E 022°12'  
2017-Oct-09 12:21N 43°54' E 022°51'2 4.4
2017-Oct-09 12:00N 43°52' E 022°50'2 4.4
2017-Oct-09 11:30N 43°50' E 022°52'3 4.7
2017-Oct-09 10:58N 43°50' E 022°55'3 4.4
2017-Oct-09 10:23N 43°49' E 022°58'2 4.3
2017-Oct-09 09:58N 43°48' E 023°01'4 3.9
2017-Oct-09 08:52N 43°48' E 023°07'5 4.2
2017-Oct-09 07:48N 43°50' E 023°13'2 4.2
2017-Oct-09 07:14N 43°51' E 023°16'1 4.6
2017-Oct-09 07:00N 43°51' E 023°17'2 4.4
2017-Oct-09 06:30N 43°51' E 023°20'3 4.6
2017-Oct-09 05:54N 43°51' E 023°24'  
2017-Oct-04 14:11N 44°17' E 028°05'1 5.5
2017-Oct-04 14:00N 44°16' E 028°06'3 5.6
2017-Oct-04 13:30N 44°16' E 028°10'3 5.4
2017-Oct-04 13:00N 44°15' E 028°13'3 5.5
2017-Oct-04 12:30N 44°15' E 028°17'3 5.5
2017-Oct-04 12:00N 44°15' E 028°21'3 5.7
2017-Oct-04 11:30N 44°13' E 028°23'9 4.7
2017-Oct-04 09:32N 44°06' E 028°33'0 5.6
2017-Oct-04 09:29N 44°06' E 028°33'3 5.8
2017-Oct-04 09:00N 44°06' E 028°37'0 0.9
2017-Oct-04 08:30N 44°06' E 028°37'0 0.5
2017-Oct-04 08:00N 44°06' E 028°38'0 0.0
2017-Oct-04 07:30N 44°06' E 028°38'2 3.2
2017-Oct-04 07:00N 44°07' E 028°39'0 0.1
2017-Oct-04 06:30N 44°07' E 028°39'1 2.6
2017-Oct-04 06:00N 44°06' E 028°39'0 0.0
2017-Oct-04 05:30N 44°06' E 028°39'0 0.0
2017-Oct-04 05:00N 44°06' E 028°39'1 1.8
2017-Oct-04 04:30N 44°07' E 028°39'0 0.0
2017-Oct-04 04:00N 44°07' E 028°39'0 0.0
2017-Oct-04 03:30N 44°07' E 028°39'0 0.0
2017-Oct-04 03:00N 44°07' E 028°39'  

Dump ship's entire track history